Tiempo atmosférico en la estación meteorológica de Salobreña, Granada (20 m.)



Fecha
DESCASC
Temp. máxima en grados centígrados (hora)
DESCASC
Temp. mínima en grados centígrados (hora)
DESCASC
Temp. media en grados centígrados
DESCASC
Racha de viento máxima en m/sg (hora)
DESCASC
Velocidad máxima media en intervalos de 10 minutos(hora)
DESCASC
Precipitaciones diarias en mm
DESCASC
Precipitaciones de 00:00 a 06:00 en mm
DESCASC
Precipitaciones de 06:00 a 12:00 en mm
DESCASC
Precipitaciones de 12:00 a 18:00 en mm
DESCASC
Precipitaciones de 18:00 a 24:00 en mm
DESCASC
17-10-2019 22.4 (15:10) 10.4 (04:50) 16.4 7.78 (13:20) 4.72 (13:20) 0 0 0 0 0
16-10-2019 23.3 (11:30) 11.2 (01:50) 17.2 6.67 (06:50) 3.61 (08:00) 0 0 0 0 0
15-10-2019 24 (16:00) 12.5 (23:40) 18.3 12.78 (05:50) 5.83 (03:30) 0 0 0 0 0
14-10-2019 24.7 (14:30) 18 (22:10) 21.4 15 (16:10) 7.78 (15:00) 0 0 0 0 0
13-10-2019 25.6 (16:00) 16.8 (00:00) 21.2 5.28 (14:00) 3.61 (14:10) 0 0 0 0 0
12-10-2019 26.8 (16:20) 16.5 (00:00) 21.6 7.5 (14:20) 4.44 (14:20) 0 0 0 0 0
11-10-2019 25.1 (11:40) 17 (00:00) 21.1 9.72 (14:00) 4.72 (14:00) 0 0 0 0 0
10-10-2019 26.5 (14:20) 16.7 (00:00) 21.6 6.67 (17:40) 4.17 (17:50) 0 0 0 0 0
09-10-2019 26.5 (14:50) 15.9 (00:00) 21.2 4.72 (13:50) 2.78 (13:50) 0 0 0 0 0
08-10-2019 27.2 (12:40) 15.9 (00:00) 21.6 8.61 (12:50) 5.56 (15:10) 0 0 0 0 0
07-10-2019 26.7 (16:50) 13.9 (00:00) 20.3 4.17 (13:20) 3.06 (13:20) 0 0 0 0 0
06-10-2019 25.6 (16:40) 13.6 (00:00) 19.6 4.17 (13:50) 2.5 (14:50) 0 0 0 0 0
05-10-2019 25.9 (14:00) 12.5 (00:00) 19.2 5 (14:30) 3.33 (14:20) 0 0 0 0 0
04-10-2019 26.5 (16:00) 13.5 (00:00) 20 7.22 (09:30) 4.44 (10:10) 0 0 0 0 0
03-10-2019 26.6 (17:40) 14 (00:00) 20.3 7.78 (13:40) 4.44 (13:40) 0 0 0 0 0
02-10-2019 29.7 (19:50) 20.2 (00:00) 25 15.83 (20:00) 8.33 (02:10) 0 0 0 0 0
01-10-2019 29.3 (21:00) 14.8 (00:00) 22 13.33 (17:10) 7.22 (16:50) 0 0 0 0 0
30-09-2019 25 (16:20) 14.5 (00:00) 19.8 7.78 (18:00) 3.89 (17:50) 0 0 0 0 0
29-09-2019 26.4 (17:00) 15.3 (00:00) 20.8 5.28 (15:00) 3.06 (15:00) 0 0 0 0 0
28-09-2019 27.2 (16:30) 14.7 (00:00) 21 4.44 (15:10) 2.78 (12:10) 0 0 0 0 0
27-09-2019 24.6 (13:10) 16.5 (00:00) 20.6 5.28 (15:10) 3.33 (15:10) 0 0 0 0 0
26-09-2019 26.9 (12:50) 15 (00:00) 20.9 7.22 (13:30) 4.17 (12:50) 0 0 0 0 0
25-09-2019 28.3 (18:20) 15.6 (00:00) 21.9 6.39 (16:00) 3.61 (17:00) 0 0 0 0 0
24-09-2019 26.1 (15:40) 15 (00:00) 20.6 6.39 (16:20) 3.61 (17:40) 0 0 0 0 0
23-09-2019 27.6 (17:00) 17.2 (00:00) 22.4 8.89 (13:20) 5.83 (12:40) 0 0 0 0 0
22-09-2019 26.8 (16:30) 16.6 (00:00) 21.7 13.61 (17:00) 7.22 (17:30) 0 0 0 0 0
21-09-2019 26.5 (14:20) 20.6 (00:00) 23.6 7.22 (17:20) 3.33 (16:50) 0 0 0 0 0
20-09-2019 28.6 (14:20) 19.7 (00:00) 24.2 7.22 (11:50) 4.17 (11:50) 0 0 0 0 0
19-09-2019 27 (16:00) 17.5 (00:00) 22.3 5.83 (14:10) 3.33 (13:30) 0 0 0 0 0

Gráficas

Temp. máximas Temp. mínimas Temp. medias Precipitaciones Rachas de viento máximas Velocidades máximas media en intervalos de 10 minutos

Datos horarios

Fecha y hora oficial Temperatura (ºC) Velocidad del viento (km/h) Dirección del viento Racha (km/h) Dirección de racha Precipitación (mm) Presión (hPa) Tendencia (hPa) Humedad (%)
2019-10-18 23:00:00 15.5 3 Noroeste 6 Noroeste 0 -- -- 90
2019-10-18 22:00:00 16.2 4 Norte 9 Norte 0 -- -- 87
2019-10-18 21:00:00 17.2 6 Norte 8 Norte 0 -- -- 87
2019-10-18 20:00:00 19.3 4 Norte 6 Norte 0 -- -- 82
2019-10-18 19:00:00 21.6 3 Sur 11 Sur 0 -- -- 74
2019-10-18 18:00:00 22.6 8 Sur 18 Sudoeste 0 -- -- 70
2019-10-18 17:00:00 22.3 12 Sudoeste 21 Sudoeste 0 -- -- 70
2019-10-18 16:00:00 23.2 8 Sudoeste 18 Sudoeste 0 -- -- 73
2019-10-18 15:00:00 22.9 9 Sudoeste 17 Sur 0 -- -- 75
2019-10-18 14:00:00 22.5 10 Sudoeste 17 Sudoeste 0 -- -- 75
2019-10-18 13:00:00 22.4 10 Sudoeste 21 Sudoeste 0 -- -- 71
2019-10-18 12:00:00 22.8 10 Oeste 21 Oeste 0 -- -- 62
2019-10-18 11:00:00 21.4 6 Oeste 12 Oeste 0 -- -- 62
2019-10-18 10:00:00 17 3 Norte 11 Nordeste 0 -- -- 77
2019-10-18 09:00:00 11.8 8 Norte 12 Norte 0 -- -- 78
2019-10-18 08:00:00 10.2 8 Norte 10 Norte 0 -- -- 88
2019-10-18 07:00:00 10.3 5 Norte 8 Norte 0 -- -- 90
2019-10-18 06:00:00 10.4 4 Noroeste 9 Noroeste 0 -- -- 89
2019-10-18 05:00:00 11.1 4 Norte 9 Norte 0 -- -- 89
2019-10-18 04:00:00 12.1 5 Norte 10 Norte 0 -- -- 90
2019-10-18 03:00:00 12.1 3 Norte 11 Nordeste 0 -- -- 87
2019-10-18 02:00:00 12.3 4 Norte 9 Norte 0 -- -- 87
2019-10-18 01:00:00 12.3 4 Norte 9 Norte 0 -- -- 88
2019-10-18 00:00:00 13.3 4 Nordeste 10 Norte 0 -- -- 84
2019-10-17 23:00:00 14 5 Norte 12 Norte 0 -- -- 81
2019-10-17 22:00:00 14.4 8 Norte 10 Nordeste 0 -- -- 84
2019-10-17 21:00:00 15.5 6 Nordeste 11 Nordeste 0 -- -- 82
2019-10-17 20:00:00 17.7 5 Norte 11 Oeste 0 -- -- 75
2019-10-17 19:00:00 21.3 6 Sudoeste 19 Sudoeste 0 -- -- 54
2019-10-17 18:00:00 21.7 13 Sudoeste 24 Sudoeste 0 -- -- 55
2019-10-17 17:00:00 21.5 13 Sudoeste 27 Sudoeste 0 -- -- 62
2019-10-17 16:00:00 22.2 15 Sudoeste 26 Sudoeste 0 -- -- 54
2019-10-17 15:00:00 22.3 13 Sudoeste 23 Sudoeste 0 -- -- 51
2019-10-17 14:00:00 21.9 12 Sudoeste 28 Sudoeste 0 -- -- 54
2019-10-17 13:00:00 21.8 13 Sudoeste 22 Oeste 0 -- -- 43
2019-10-17 12:00:00 21.4 10 Oeste 17 Sudoeste 0 -- -- 47
2019-10-17 11:00:00 21.4 4 Oeste 8 Oeste 0 -- -- 37
2019-10-17 10:00:00 17 0 Calma 11 Norte 0 -- -- 62
2019-10-17 09:00:00 11.5 8 Norte 12 Nordeste 0 -- -- 67
2019-10-17 08:00:00 11.2 8 Norte 13 Norte 0 -- -- 65
2019-10-17 07:00:00 10.8 8 Nordeste 12 Norte 0 -- -- 71
2019-10-17 06:00:00 11.1 8 Norte 12 Norte 0 -- -- 71
2019-10-17 05:00:00 10.7 9 Norte 13 Norte 0 -- -- 76
2019-10-17 04:00:00 10.7 6 Norte 11 Nordeste 0 -- -- 79
2019-10-17 03:00:00 12.3 10 Nordeste 15 Nordeste 0 -- -- 70
2019-10-17 02:00:00 12.3 10 Norte 14 Norte 0 -- -- 70
2019-10-17 01:00:00 12.3 10 Norte 13 Norte 0 -- -- 72
2019-10-17 00:00:00 11.9 6 Norte 12 Norte 0 -- -- 78
2019-10-16 23:00:00 12.4 8 Norte 11 Norte 0 -- -- 78
2019-10-16 22:00:00 13.4 8 Norte 11 Nordeste 0 -- -- 75
2019-10-16 21:00:00 14.6 7 Norte 10 Norte 0 -- -- 78
2019-10-16 20:00:00 18.1 3 Norte 14 Sudoeste 0 -- -- 63
2019-10-16 19:00:00 20.8 9 Sudoeste 19 Oeste 0 -- -- 52
2019-10-16 18:00:00 21.7 12 Sudoeste 22 Sudoeste 0 -- -- 43
2019-10-16 17:00:00 21.9 13 Sudoeste 20 Sudoeste 0 -- -- 49
2019-10-16 16:00:00 22.3 10 Sudoeste 19 Sudoeste 0 -- -- 52
2019-10-16 15:00:00 22.6 9 Sudoeste 18 Sudoeste 0 -- -- 53
2019-10-16 14:00:00 22.6 10 Sudoeste 16 Sudoeste 0 -- -- 53
2019-10-16 13:00:00 22.8 6 Sudoeste 13 Sudoeste 0 -- -- 45
2019-10-16 12:00:00 22.1 9 Sudoeste 14 Sudoeste 0 -- -- 34
2019-10-16 11:00:00 21.4 5 Este 18 Este 0 -- -- 33
2019-10-16 10:00:00 17.7 12 Nordeste 22 Nordeste 0 -- -- 39
2019-10-16 09:00:00 14.3 12 Nordeste 21 Nordeste 0 -- -- 46
2019-10-16 08:00:00 14.3 13 Nordeste 23 Nordeste 0 -- -- 44
2019-10-16 07:00:00 14.1 11 Nordeste 24 Nordeste 0 -- -- 47
2019-10-16 06:00:00 13.4 9 Nordeste 20 Nordeste 0 -- -- 51
2019-10-16 05:00:00 13.7 6 Nordeste 16 Nordeste 0 -- -- 51
2019-10-16 04:00:00 13.2 10 Nordeste 18 Nordeste 0 -- -- 55
2019-10-16 03:00:00 11.2 8 Nordeste 14 Nordeste 0 -- -- 74
2019-10-16 02:00:00 11.9 10 Nordeste 15 Nordeste 0 -- -- 73
2019-10-16 01:00:00 12.1 6 Norte 11 Norte 0 -- -- 75
2019-10-16 00:00:00 12.7 8 Norte 13 Norte 0 -- -- 72
2019-10-15 23:00:00 13.4 5 Nordeste 13 Nordeste 0 -- -- 76
2019-10-15 22:00:00 14.2 9 Norte 15 Norte 0 -- -- 77
2019-10-15 21:00:00 14.9 5 Norte 8 Norte 0 -- -- 83
2019-10-15 20:00:00 17.7 3 Sudeste 14 Noroeste 0 -- -- 73
2019-10-15 19:00:00 20.7 8 Oeste 26 Sudoeste 0 -- -- 53
2019-10-15 18:00:00 21.2 13 Sudoeste 26 Sudoeste 0 -- -- 56
2019-10-15 17:00:00 22.1 12 Sudoeste 24 Sudoeste 0 -- -- 35
2019-10-15 16:00:00 24 10 Oeste 19 Noroeste 0 -- -- 24
2019-10-15 15:00:00 22.9 10 Sudoeste 19 Sudoeste 0 -- -- 31
2019-10-15 14:00:00 22.5 11 Oeste 27 Sudoeste 0 -- -- 31
2019-10-15 13:00:00 22.5 10 Oeste 23 Oeste 0 -- -- 35
2019-10-15 12:00:00 21.5 10 Sudoeste 23 Nordeste 0 -- -- 43
2019-10-15 11:00:00 21.7 16 Nordeste 26 Norte 0 -- -- 42
2019-10-15 10:00:00 19.2 6 Nordeste 19 Nordeste 0 -- -- 52
2019-10-15 09:00:00 15.4 7 Nordeste 23 Nordeste 0 -- -- 61
2019-10-15 08:00:00 17.6 11 Norte 32 Norte 0 -- -- 43
2019-10-15 07:00:00 17.6 7 Norte 35 Noroeste 0 -- -- 50
2019-10-15 06:00:00 18.3 19 Norte 46 Norte 0 -- -- 49
2019-10-15 05:00:00 18.4 18 Norte 33 Norte 0 -- -- 50
2019-10-15 04:00:00 18.9 17 Norte 37 Norte 0 -- -- 51
2019-10-15 03:00:00 19.5 17 Norte 35 Norte 0 -- -- 52
2019-10-15 02:00:00 16 4 Nordeste 11 Norte 0 -- -- 77
2019-10-15 01:00:00 18 0 Calma 18 Noroeste 0 -- -- 66
2019-10-15 00:00:00 20.2 8 Oeste 18 Noroeste 0 -- -- 57
2019-10-14 23:00:00 21 8 Oeste 28 Noroeste 0 -- -- 49
2019-10-14 22:00:00 18.4 0 Calma 13 Noroeste 0 -- -- 78
2019-10-14 21:00:00 21.5 13 Noroeste 45 Oeste 0 -- -- 62
2019-10-14 20:00:00 22.1 22 Oeste 39 Oeste 0 -- -- 67
2019-10-14 19:00:00 22.6 16 Oeste 44 Noroeste 0 -- -- 70
2019-10-14 18:00:00 23.2 25 Oeste 48 Noroeste 0 -- -- 68
2019-10-14 17:00:00 23.3 27 Oeste 54 Oeste 0 -- -- 71
2019-10-14 16:00:00 24.1 23 Oeste 48 Oeste 0 -- -- 64
2019-10-14 15:00:00 23.8 28 Oeste 53 Oeste 0 -- -- 69
2019-10-14 14:00:00 23.8 23 Oeste 45 Oeste 0 -- -- 73
2019-10-14 13:00:00 24.1 19 Oeste 43 Sudoeste 0 -- -- 73
2019-10-14 12:00:00 23.7 16 Sudoeste 37 Sudoeste 0 -- -- 76
2019-10-14 11:00:00 23 14 Oeste 30 Oeste 0 -- -- 79
2019-10-14 10:00:00 20.4 4 Nordeste 8 Norte 0 -- -- 93
2019-10-14 09:00:00 19.8 4 Norte 17 Oeste 0 -- -- 92
2019-10-14 08:00:00 19.4 5 Norte 17 Nordeste 0 -- -- 95
2019-10-14 07:00:00 19 4 Norte 10 Nordeste 0 -- -- 96
2019-10-14 06:00:00 19.1 4 Nordeste 11 Nordeste 0 -- -- 96
2019-10-14 05:00:00 18.7 9 Nordeste 11 Nordeste 0 -- -- 97
2019-10-14 04:00:00 18.2 5 Norte 9 Norte 0 -- -- 96
2019-10-14 03:00:00 18.2 4 Nordeste 9 Norte 0 -- -- 96
2019-10-14 02:00:00 18.7 5 Norte 10 Oeste 0 -- -- 95
2019-10-14 01:00:00 18.5 5 Nordeste 10 Norte 0 -- -- 94
2019-10-14 00:00:00 19.9 6 Nordeste 10 Noroeste 0 -- -- 93
2019-10-13 23:00:00 20 6 Noroeste 10 Norte 0 -- -- 96
2019-10-13 22:00:00 19.1 5 Nordeste 8 Norte 0 -- -- 93
2019-10-13 21:00:00 19.8 2 Noroeste 5 Norte 0 -- -- 88
2019-10-13 20:00:00 22.1 2 Norte 9 Sudoeste 0 -- -- 83
2019-10-13 19:00:00 23.9 6 Sudoeste 11 Sur 0 -- -- 79
2019-10-13 18:00:00 24.9 9 Sudoeste 14 Sudoeste 0 -- -- 75
2019-10-13 17:00:00 25.5 6 Sudoeste 16 Sudoeste 0 -- -- 72
2019-10-13 16:00:00 25.6 10 Sudoeste 17 Sudoeste 0 -- -- 72
2019-10-13 15:00:00 25.5 8 Sudoeste 19 Sudoeste 0 -- -- 74
2019-10-13 14:00:00 25 10 Sudoeste 19 Sudoeste 0 -- -- 76
2019-10-13 13:00:00 24.9 11 Sur 19 Sudoeste 0 -- -- 77
2019-10-13 12:00:00 24.7 9 Sudoeste 15 Sudoeste 0 -- -- 75
2019-10-13 11:00:00 24.2 4 Norte 10 Nordeste 0 -- -- 70
2019-10-13 10:00:00 20.5 9 Nordeste 13 Nordeste 0 -- -- 77
2019-10-13 09:00:00 17.3 6 Nordeste 14 Este 0 -- -- 88
2019-10-13 08:00:00 17.5 9 Nordeste 18 Nordeste 0 -- -- 87
2019-10-13 07:00:00 17.1 9 Nordeste 13 Nordeste 0 -- -- 94
2019-10-13 06:00:00 16.8 6 Norte 10 Nordeste 0 -- -- 94
2019-10-13 05:00:00 17.7 8 Nordeste 15 Nordeste 0 -- -- 95
2019-10-13 04:00:00 17.4 5 Norte 9 Norte 0 -- -- 96
2019-10-13 03:00:00 17.5 6 Norte 8 Norte 0 -- -- 95
2019-10-13 02:00:00 18.1 5 Norte 9 Nordeste 0 -- -- 94
2019-10-13 01:00:00 18.5 6 Norte 10 Nordeste 0 -- -- 95
2019-10-13 00:00:00 19 5 Nordeste 8 Norte 0 -- -- 93
2019-10-12 23:00:00 19.7 5 Norte 8 Norte 0 -- -- 92
2019-10-12 22:00:00 20.3 6 Norte 8 Norte 0 -- -- 91
2019-10-12 21:00:00 21.4 4 Norte 4 Norte 0 -- -- 87
2019-10-12 20:00:00 23.3 0 Calma 6 Sudoeste 0 -- -- 81
2019-10-12 19:00:00 24.2 4 Sur 12 Sudoeste 0 -- -- 77
2019-10-12 18:00:00 25.1 8 Sudoeste 16 Sudoeste 0 -- -- 74
2019-10-12 17:00:00 25.9 9 Sudoeste 18 Sudoeste 0 -- -- 70
2019-10-12 16:00:00 26.7 8 Sudoeste 19 Sudoeste 0 -- -- 66
2019-10-12 15:00:00 26.3 9 Sudoeste 27 Sur 0 -- -- 66
2019-10-12 14:00:00 25.9 13 Sudoeste 27 Sudoeste 0 -- -- 67
2019-10-12 13:00:00 25.2 9 Sur 13 Sur 0 -- -- 66
2019-10-12 12:00:00 25.3 5 Sudoeste 12 Sudoeste 0 -- -- 63
2019-10-12 11:00:00 22.5 5 Nordeste 8 Nordeste 0 -- -- 75
2019-10-12 10:00:00 19.4 7 Nordeste 13 Nordeste 0 -- -- 83
2019-10-12 09:00:00 17.5 8 Nordeste 12 Nordeste 0 -- -- 89
2019-10-12 08:00:00 17.5 5 Nordeste 13 Nordeste 0 -- -- 87
2019-10-12 07:00:00 17.2 9 Nordeste 12 Norte 0 -- -- 92
2019-10-12 06:00:00 16.8 5 Norte 9 Nordeste 0 -- -- 94
2019-10-12 05:00:00 16.6 4 Nordeste 10 Nordeste 0 -- -- 93
2019-10-12 04:00:00 17.3 4 Nordeste 10 Nordeste 0 -- -- 93
2019-10-12 03:00:00 17.6 2 Este 6 Noroeste 0 -- -- 92
2019-10-12 02:00:00 18.7 0 Calma 9 Nordeste 0 -- -- 91
2019-10-12 01:00:00 19 5 Norte 7 Norte 0 -- -- 91
2019-10-12 00:00:00 19.4 4 Este 8 Nordeste 0 -- -- 90
2019-10-11 23:00:00 19.7 3 Norte 8 Nordeste 0 -- -- 90
2019-10-11 22:00:00 20.6 4 Nordeste 15 Noroeste 0 -- -- 86
2019-10-11 21:00:00 21.1 3 Oeste 8 Oeste 0 -- -- 85
2019-10-11 20:00:00 22.6 5 Oeste 12 Oeste 0 -- -- 80
2019-10-11 19:00:00 23.5 7 Oeste 18 Oeste 0 -- -- 71
2019-10-11 18:00:00 24.6 9 Oeste 25 Oeste 0 -- -- 66
2019-10-11 17:00:00 24.3 14 Oeste 28 Sudoeste 0 -- -- 70
2019-10-11 16:00:00 24.9 14 Sudoeste 28 Oeste 0 -- -- 69
2019-10-11 15:00:00 24.6 15 Sudoeste 28 Sudoeste 0 -- -- 70
2019-10-11 14:00:00 24.5 17 Oeste 35 Oeste 0 -- -- 72
2019-10-11 13:00:00 24.5 16 Oeste 32 Oeste 0 -- -- 74
2019-10-11 12:00:00 25 10 Oeste 21 Noroeste 0 -- -- 70
2019-10-11 11:00:00 24.2 7 Oeste 16 Oeste 0 -- -- 74
2019-10-11 10:00:00 21 3 Nordeste 9 Nordeste 0 -- -- 93
2019-10-11 09:00:00 17.3 6 Nordeste 8 Norte 0 -- -- 96
2019-10-11 08:00:00 17.3 6 Norte 8 Norte 0 -- -- 95
2019-10-11 07:00:00 17.7 6 Nordeste 9 Este 0 -- -- 96
2019-10-11 06:00:00 17.9 7 Norte 10 Norte 0 -- -- 94
2019-10-11 05:00:00 18.6 6 Nordeste 9 Nordeste 0 -- -- 94
2019-10-11 04:00:00 19.3 5 Nordeste 8 Nordeste 0 -- -- 92
2019-10-11 03:00:00 20.2 5 Norte 6 Norte 0 -- -- 93
2019-10-11 02:00:00 20.8 3 Este 5 Nordeste 0 -- -- 92
2019-10-11 01:00:00 20.7 0 Calma 5 Nordeste 0 -- -- 93
2019-10-11 00:00:00 20.1 3 Nordeste 9 Noroeste 0 -- -- 92
2019-10-10 23:00:00 20.6 4 Noroeste 9 Noroeste 0 -- -- 91
2019-10-10 22:00:00 20.1 5 Noroeste 10 Noroeste 0 -- -- 90
2019-10-10 21:00:00 21.4 0 Calma 8 Sudoeste 0 -- -- 84
2019-10-10 20:00:00 23 4 Oeste 18 Sur 0 -- -- 78
2019-10-10 19:00:00 24.4 10 Sur 23 Sur 0 -- -- 74
2019-10-10 18:00:00 25.3 13 Sur 24 Sur 0 -- -- 71
2019-10-10 17:00:00 26.1 13 Sur 23 Sudoeste 0 -- -- 67
2019-10-10 16:00:00 25.9 10 Sudoeste 20 Sudoeste 0 -- -- 68
2019-10-10 15:00:00 26.3 9 Oeste 22 Oeste 0 -- -- 65
2019-10-10 14:00:00 26.3 9 Sur 20 Sudoeste 0 -- -- 62
2019-10-10 13:00:00 25.7 10 Sudoeste 20 Sudoeste 0 -- -- 63
2019-10-10 12:00:00 25.3 10 Sudoeste 17 Sur 0 -- -- 65
2019-10-10 11:00:00 25.1 4 Sudoeste 10 Este 0 -- -- 66
2019-10-10 10:00:00 21.6 8 Nordeste 17 Nordeste 0 -- -- 74
2019-10-10 09:00:00 18 10 Nordeste 17 Este 0 -- -- 85
2019-10-10 08:00:00 17.4 11 Nordeste 15 Nordeste 0 -- -- 87
2019-10-10 07:00:00 16.9 7 Nordeste 13 Nordeste 0 -- -- 89
2019-10-10 06:00:00 16.8 6 Nordeste 10 Nordeste 0 -- -- 91
2019-10-10 05:00:00 16.8 8 Nordeste 11 Nordeste 0 -- -- 92
2019-10-10 04:00:00 16.7 6 Norte 9 Nordeste 0 -- -- 92
2019-10-10 03:00:00 17.2 6 Nordeste 9 Nordeste 0 -- -- 90
2019-10-10 02:00:00 17.4 7 Nordeste 10 Norte 0 -- -- 90
2019-10-10 01:00:00 17.4 5 Nordeste 9 Norte 0 -- -- 89
2019-10-10 00:00:00 17.6 7 Norte 10 Norte 0 -- -- 90
2019-10-09 23:00:00 17.9 5 Norte 8 Norte 0 -- -- 88
2019-10-09 22:00:00 18.7 4 Nordeste 6 Nordeste 0 -- -- 86
2019-10-09 21:00:00 20.1 2 Noroeste 5 Nordeste 0 -- -- 83
2019-10-09 20:00:00 22.7 2 Nordeste 9 Sudoeste 0 -- -- 74
2019-10-09 19:00:00 24 7 Sudoeste 13 Sur 0 -- -- 68
2019-10-09 18:00:00 24.9 7 Sudoeste 12 Sudoeste 0 -- -- 61
2019-10-09 17:00:00 25.7 6 Sudoeste 15 Sur 0 -- -- 56
2019-10-09 16:00:00 25.9 9 Sudoeste 15 Sudoeste 0 -- -- 53
2019-10-09 15:00:00 26.2 9 Sudoeste 14 Sudoeste 0 -- -- 50
2019-10-09 14:00:00 25.2 10 Sudoeste 17 Sudoeste 0 -- -- 58
2019-10-09 13:00:00 25.2 8 Sudoeste 15 Sudoeste 0 -- -- 61
2019-10-09 12:00:00 25.1 7 Sudoeste 13 Oeste 0 -- -- 59
2019-10-09 11:00:00 24.6 4 Sudoeste 10 Este 0 -- -- 57
2019-10-09 10:00:00 21.1 6 Nordeste 12 Nordeste 0 -- -- 74
2019-10-09 09:00:00 17 8 Nordeste 13 Nordeste 0 -- -- 87
2019-10-09 08:00:00 16.4 8 Nordeste 12 Nordeste 0 -- -- 88
2019-10-09 07:00:00 16.4 6 Nordeste 12 Nordeste 0 -- -- 88
2019-10-09 06:00:00 16.6 9 Nordeste 13 Nordeste 0 -- -- 88
2019-10-09 05:00:00 16.3 8 Nordeste 11 Nordeste 0 -- -- 92
2019-10-09 04:00:00 16.1 7 Nordeste 11 Nordeste 0 -- -- 91
2019-10-09 03:00:00 16.1 6 Nordeste 8 Nordeste 0 -- -- 91
2019-10-09 02:00:00 16.5 5 Nordeste 10 Norte 0 -- -- 91
2019-10-09 01:00:00 16.7 3 Norte 6 Nordeste 0 -- -- 89
2019-10-09 00:00:00 17.2 4 Nordeste 6 Norte 0 -- -- 88
2019-10-08 23:00:00 17.8 6 Norte 9 Norte 0 -- -- 86
2019-10-08 22:00:00 18.6 5 Nordeste 7 Norte 0 -- -- 83
2019-10-08 21:00:00 19.6 6 Norte 8 Norte 0 -- -- 77
2019-10-08 20:00:00 22.5 2 Oeste 13 Sur 0 -- -- 67
2019-10-08 19:00:00 24.8 6 Sur 23 Sur 0 -- -- 56
2019-10-08 18:00:00 25.7 12 Sur 28 Sudeste 0 -- -- 57
2019-10-08 17:00:00 26.4 15 Sur 30 Sur 0 -- -- 56
2019-10-08 16:00:00 26.5 17 Sur 30 Sur 0 -- -- 64
2019-10-08 15:00:00 27 18 Sur 28 Sudeste 0 -- -- 63
2019-10-08 14:00:00 27.2 16 Sur 30 Sur 0 -- -- 61
2019-10-08 13:00:00 26.7 18 Sur 31 Sur 0 -- -- 64
2019-10-08 12:00:00 26.9 14 Sur 21 Sudoeste 0 -- -- 56
2019-10-08 11:00:00 25.7 4 Oeste 10 Norte 0 -- -- 55
2019-10-08 10:00:00 21.1 7 Nordeste 13 Nordeste 0 -- -- 64
2019-10-08 09:00:00 17.2 9 Nordeste 14 Nordeste 0 -- -- 71
2019-10-08 08:00:00 16.8 9 Nordeste 14 Nordeste 0 -- -- 72
2019-10-08 07:00:00 16.8 9 Nordeste 14 Nordeste 0 -- -- 72
2019-10-08 06:00:00 16.2 8 Nordeste 11 Nordeste 0 -- -- 77
2019-10-08 05:00:00 17 7 Nordeste 13 Nordeste 0 -- -- 74
2019-10-08 04:00:00 17.6 9 Nordeste 14 Nordeste 0 -- -- 72
2019-10-08 03:00:00 16.8 8 Norte 11 Nordeste 0 -- -- 84
2019-10-08 02:00:00 16.6 8 Norte 10 Norte 0 -- -- 85
2019-10-08 01:00:00 17.3 6 Nordeste 12 Sudoeste 0 -- -- 89
2019-10-08 00:00:00 17.7 7 Oeste 13 Sudoeste 0 -- -- 90
2019-10-07 23:00:00 17.8 4 Nordeste 8 Norte 0 -- -- 86
2019-10-07 22:00:00 18.8 4 Norte 10 Norte 0 -- -- 84
2019-10-07 21:00:00 20.4 3 Norte 7 Norte 0 -- -- 84
2019-10-07 20:00:00 23.4 3 Norte 6 Sudoeste 0 -- -- 79
2019-10-07 19:00:00 25.4 4 Sur 10 Sudoeste 0 -- -- 69
2019-10-07 18:00:00 25.8 5 Sudoeste 12 Sudoeste 0 -- -- 59
2019-10-07 17:00:00 26.7 6 Sudoeste 14 Sudoeste 0 -- -- 56
2019-10-07 16:00:00 26.1 8 Sudoeste 14 Sudoeste 0 -- -- 59
2019-10-07 15:00:00 25.9 9 Sudoeste 14 Sudoeste 0 -- -- 70
2019-10-07 14:00:00 25.7 8 Sudoeste 15 Sur 0 -- -- 69
2019-10-07 13:00:00 26.1 6 Sudoeste 12 Sudoeste 0 -- -- 58
2019-10-07 12:00:00 24.9 5 Sur 10 Sudoeste 0 -- -- 65
2019-10-07 11:00:00 23.4 6 Sur 9 Sudoeste 0 -- -- 75
2019-10-07 10:00:00 20.2 3 Sur 9 Nordeste 0 -- -- 94
2019-10-07 09:00:00 15.4 4 Norte 8 Norte 0 -- -- 97
2019-10-07 08:00:00 14 3 Norte 10 Nordeste 0 -- -- 91
2019-10-07 07:00:00 14.2 6 Nordeste 12 Nordeste 0 -- -- 91
2019-10-07 06:00:00 14.6 4 Nordeste 12 Norte 0 -- -- 92
2019-10-07 05:00:00 14.8 6 Norte 9 Norte 0 -- -- 93
2019-10-07 04:00:00 15.1 6 Norte 8 Norte 0 -- -- 93
2019-10-07 03:00:00 15.2 4 Este 8 Nordeste 0 -- -- 93
2019-10-07 02:00:00 15.6 4 Nordeste 9 Nordeste 0 -- -- 93
2019-10-07 01:00:00 16 4 Nordeste 8 Norte 0 -- -- 91
2019-10-07 00:00:00 16.7 6 Nordeste 9 Norte 0 -- -- 90
2019-10-06 23:00:00 17.3 4 Norte 8 Norte 0 -- -- 90
2019-10-06 22:00:00 18.1 6 Norte 9 Norte 0 -- -- 88
2019-10-06 21:00:00 19 5 Norte 9 Norte 0 -- -- 86
2019-10-06 20:00:00 21.9 4 Norte 6 Norte 0 -- -- 81
2019-10-06 19:00:00 24.2 3 Oeste 11 Sudoeste 0 -- -- 75
2019-10-06 18:00:00 24.7 6 Sudoeste 12 Sur 0 -- -- 70
2019-10-06 17:00:00 24.9 8 Sudoeste 14 Sudoeste 0 -- -- 70
2019-10-06 16:00:00 25.2 9 Sudoeste 14 Sudoeste 0 -- -- 68
2019-10-06 15:00:00 25 8 Sudoeste 14 Sudoeste 0 -- -- 70
2019-10-06 14:00:00 24.5 7 Sudoeste 15 Oeste 0 -- -- 71
2019-10-06 13:00:00 24.3 8 Sudoeste 13 Sur 0 -- -- 74
2019-10-06 12:00:00 23.8 7 Sudoeste 12 Sudoeste 0 -- -- 77
2019-10-06 11:00:00 22.3 6 Sudoeste 10 Sudoeste 0 -- -- 79
2019-10-06 10:00:00 19.4 4 Sudoeste 6 Sudoeste 0 -- -- 95
2019-10-06 09:00:00 14.3 3 Norte 8 Norte 0 -- -- 96
2019-10-06 08:00:00 14 2 Sudoeste 9 Norte 0 -- -- 93
2019-10-06 07:00:00 14.1 6 Norte 13 Norte 0 -- -- 94
2019-10-06 06:00:00 14.4 6 Nordeste 10 Nordeste 0 -- -- 95
2019-10-06 05:00:00 14.9 5 Nordeste 9 Nordeste 0 -- -- 94
2019-10-06 04:00:00 15 7 Nordeste 11 Nordeste 0 -- -- 93
2019-10-06 03:00:00 15.2 4 Norte 9 Nordeste 0 -- -- 92
2019-10-06 02:00:00 15.3 5 Norte 8 Norte 0 -- -- 92
2019-10-06 01:00:00 15.7 4 Nordeste 11 Norte 0 -- -- 89
2019-10-06 00:00:00 16.1 6 Norte 9 Norte 0 -- -- 90
2019-10-05 23:00:00 16.5 3 Nordeste 7 Norte 0 -- -- 88
2019-10-05 22:00:00 17.8 4 Nordeste 10 Norte 0 -- -- 86
2019-10-05 21:00:00 19.5 4 Nordeste 5 Nordeste 0 -- -- 85
2019-10-05 20:00:00 22.1 2 Norte 8 Noroeste 0 -- -- 76
2019-10-05 19:00:00 23.8 5 Oeste 12 Noroeste 0 -- -- 72
2019-10-05 18:00:00 25 5 Sudoeste 12 Sur 0 -- -- 60
2019-10-05 17:00:00 25 7 Sudoeste 18 Sudoeste 0 -- -- 64
2019-10-05 16:00:00 25.2 9 Sudoeste 16 Sudoeste 0 -- -- 70
2019-10-05 15:00:00 25 9 Sudoeste 18 Oeste 0 -- -- 66
2019-10-05 14:00:00 25.9 8 Sudoeste 13 Oeste 0 -- -- 66
2019-10-05 13:00:00 25 7 Sudoeste 13 Sudoeste 0 -- -- 64
2019-10-05 12:00:00 25 6 Oeste 11 Sudoeste 0 -- -- 61
2019-10-05 11:00:00 24.2 6 Sudoeste 8 Sudoeste 0 -- -- 61
2019-10-05 10:00:00 19.7 2 Nordeste 7 Nordeste 0 -- -- 80
2019-10-05 09:00:00 14 4 Nordeste 8 Norte 0 -- -- 96
2019-10-05 08:00:00 12.6 0 Calma 5 Norte 0 -- -- 94
2019-10-05 07:00:00 12.9 3 Norte 8 Norte 0 -- -- 91
2019-10-05 06:00:00 13.3 4 Norte 6 Norte 0 -- -- 89
2019-10-05 05:00:00 13.9 4 Norte 9 Norte 0 -- -- 88
2019-10-05 04:00:00 14.3 6 Norte 9 Norte 0 -- -- 89
2019-10-05 03:00:00 14.8 6 Norte 10 Norte 0 -- -- 84
2019-10-05 02:00:00 14.9 6 Norte 9 Norte 0 -- -- 86
2019-10-05 01:00:00 15.4 4 Nordeste 7 Norte 0 -- -- 87
2019-10-05 00:00:00 16 6 Norte 9 Nordeste 0 -- -- 86
2019-10-04 23:00:00 17 4 Norte 8 Norte 0 -- -- 89
2019-10-04 22:00:00 17.7 3 Norte 6 Norte 0 -- -- 85
2019-10-04 21:00:00 19.5 0 Calma 5 Noroeste 0 -- -- 84
2019-10-04 20:00:00 22.5 0 Calma 7 Sudoeste 0 -- -- 76
2019-10-04 19:00:00 24.7 5 Sudoeste 10 Sudoeste 0 -- -- 65
2019-10-04 18:00:00 25.3 6 Sudoeste 12 Sudoeste 0 -- -- 62
2019-10-04 17:00:00 26.1 7 Sudoeste 12 Sudoeste 0 -- -- 57
2019-10-04 16:00:00 26.5 8 Sudoeste 17 Sudoeste 0 -- -- 53
2019-10-04 15:00:00 26.1 9 Sudoeste 15 Sudoeste 0 -- -- 56
2019-10-04 14:00:00 25.5 9 Sudoeste 15 Sudoeste 0 -- -- 66
2019-10-04 13:00:00 25.2 7 Sudoeste 15 Sudoeste 1.4 -- -- 64
2019-10-04 12:00:00 25.5 9 Sudoeste 14 Sur 0 -- -- 51
2019-10-04 11:00:00 25.8 10 Sur 26 Este 0 -- -- 44
2019-10-04 10:00:00 23.2 9 Este 26 Este 0 -- -- 45
2019-10-04 09:00:00 15.6 9 Este 23 Este 0 -- -- 76
2019-10-04 08:00:00 13.7 3 Norte 10 Este 0 -- -- 87
2019-10-04 07:00:00 13.5 4 Norte 9 Noroeste 0 -- -- 90
2019-10-04 06:00:00 14 2 Este 9 Norte 0 -- -- 91
2019-10-04 05:00:00 14.1 0 Calma 8 Noroeste 0 -- -- 90
2019-10-04 04:00:00 14.1 4 Norte 8 Norte 0 -- -- 88
2019-10-04 03:00:00 14.3 4 Norte 9 Norte 0 -- -- 88
2019-10-04 02:00:00 15.1 2 Nordeste 10 Norte 0 -- -- 89
2019-10-04 01:00:00 15.6 4 Norte 10 Nordeste 0 -- -- 88
2019-10-04 00:00:00 16.3 6 Nordeste 11 Nordeste 0 -- -- 88
2019-10-03 23:00:00 16.6 6 Nordeste 11 Nordeste 0 -- -- 90
2019-10-03 22:00:00 17.7 4 Nordeste 10 Nordeste 0 -- -- 86
2019-10-03 21:00:00 19.7 3 Norte 6 Norte 0 -- -- 85
2019-10-03 20:00:00 22.7 0 Calma 9 Sudoeste 0 -- -- 76
2019-10-03 19:00:00 24.5 5 Sudoeste 13 Sudoeste 0 -- -- 60
2019-10-03 18:00:00 25.2 9 Sudoeste 19 Sur 0 -- -- 57
2019-10-03 17:00:00 25.5 9 Sudoeste 17 Sudoeste 0 -- -- 51
2019-10-03 16:00:00 26 6 Sudoeste 18 Sudoeste 0 -- -- 46
2019-10-03 15:00:00 26.3 10 Sudoeste 22 Sudoeste 0 -- -- 45
2019-10-03 14:00:00 25.2 13 Oeste 28 Oeste 0 -- -- 51
2019-10-03 13:00:00 24.5 14 Sudoeste 24 Sudoeste 0 -- -- 54
2019-10-03 12:00:00 25.3 11 Oeste 21 Oeste 0 -- -- 50
2019-10-03 11:00:00 25.2 5 Noroeste 14 Nordeste 0 -- -- 42
2019-10-03 10:00:00 21.8 11 Nordeste 17 Este 0 -- -- 47
2019-10-03 09:00:00 16.1 7 Nordeste 11 Norte 0 -- -- 72
2019-10-03 08:00:00 14.1 8 Nordeste 10 Nordeste 0 -- -- 82
2019-10-03 07:00:00 15 8 Nordeste 12 Nordeste 0 -- -- 75
2019-10-03 06:00:00 14.3 6 Nordeste 10 Nordeste 0 -- -- 81
2019-10-03 05:00:00 14.6 7 Norte 11 Norte 0 -- -- 79
2019-10-03 04:00:00 15.3 4 Norte 9 Norte 0 -- -- 85
2019-10-03 03:00:00 16.2 4 Norte 12 Norte 0 -- -- 80
2019-10-03 02:00:00 16.9 8 Nordeste 10 Norte 0 -- -- 84
2019-10-03 01:00:00 18 5 Nordeste 12 Norte 0 -- -- 84
2019-10-03 00:00:00 20.2 4 Noroeste 16 Oeste 0 -- -- 76
2019-10-02 23:00:00 21.9 5 Oeste 13 Sudoeste 0 -- -- 70
2019-10-02 22:00:00 22.4 8 Sudoeste 17 Sudoeste 0 -- -- 71
2019-10-02 21:00:00 25.1 9 Sur 48 Norte 0 -- -- 50
2019-10-02 20:00:00 29.7 25 Norte 57 Norte 0 -- -- 15
2019-10-02 19:00:00 27.3 14 Noroeste 23 Noroeste 0 -- -- 37
2019-10-02 18:00:00 26.6 6 Sudoeste 20 Sur 0 -- -- 52
2019-10-02 17:00:00 26.2 8 Sudoeste 32 Noroeste 0 -- -- 58
2019-10-02 16:00:00 26.3 19 Oeste 35 Oeste 0 -- -- 51
2019-10-02 15:00:00 25.3 18 Sudoeste 36 Sudoeste 0 -- -- 58
2019-10-02 14:00:00 26.4 16 Oeste 34 Oeste 0 -- -- 51
2019-10-02 13:00:00 27.7 14 Oeste 24 Oeste 0 -- -- 40
2019-10-02 12:00:00 27.1 13 Oeste 20 Sudoeste 0 -- -- 41
2019-10-02 11:00:00 26.9 6 Norte 35 Nordeste 0 -- -- 39
2019-10-02 10:00:00 24.7 17 Nordeste 36 Nordeste 0 -- -- 37
2019-10-02 09:00:00 22.9 12 Nordeste 35 Nordeste 0 -- -- 41
2019-10-02 08:00:00 23.6 17 Nordeste 36 Nordeste 0 -- -- 38
2019-10-02 07:00:00 24.2 13 Nordeste 36 Nordeste 0 -- -- 33
2019-10-02 06:00:00 25.1 14 Nordeste 24 Nordeste 0 -- -- 32
2019-10-02 05:00:00 25.3 9 Norte 25 Este 0 -- -- 31
2019-10-02 04:00:00 26 9 Oeste 32 Noroeste 0 -- -- 29
2019-10-02 03:00:00 26.6 18 Norte 50 Norte 0 -- -- 29
2019-10-02 02:00:00 27.4 28 Norte 47 Norte 0 -- -- 27
2019-10-02 01:00:00 27.8 23 Norte 45 Nordeste 0 -- -- 27
2019-10-02 00:00:00 27.9 15 Norte 33 Norte 0 -- -- 25
2019-10-01 23:00:00 29 18 Noroeste 38 Noroeste 0 -- -- 20
2019-10-01 22:00:00 28.9 17 Noroeste 31 Noroeste 0 -- -- 21
2019-10-01 21:00:00 29.3 18 Noroeste 32 Noroeste 0 -- -- 19
2019-10-01 20:00:00 27.5 13 Noroeste 34 Noroeste 0 -- -- 21
2019-10-01 19:00:00 26.8 18 Oeste 36 Oeste 0 -- -- 52
2019-10-01 18:00:00 28 22 Oeste 48 Oeste 0 -- -- 44
2019-10-01 17:00:00 28.7 24 Oeste 45 Oeste 0 -- -- 38
2019-10-01 16:00:00 27.4 19 Oeste 34 Oeste 0 -- -- 51
2019-10-01 15:00:00 26.5 14 Sudoeste 27 Oeste 0 -- -- 57
2019-10-01 14:00:00 25 15 Sudoeste 29 Oeste 0 -- -- 76
2019-10-01 13:00:00 25.2 14 Oeste 25 Oeste 0 -- -- 72
2019-10-01 12:00:00 25.2 9 Oeste 19 Oeste 0 -- -- 71
2019-10-01 11:00:00 24.2 5 Oeste 13 Oeste 0 -- -- 73
2019-10-01 10:00:00 18.9 4 Nordeste 9 Norte 0 -- -- 81
2019-10-01 09:00:00 15.6 5 Nordeste 9 Nordeste 0 -- -- 92
2019-10-01 08:00:00 14.8 3 Nordeste 9 Norte 0 -- -- 93
2019-10-01 07:00:00 15 5 Noroeste 12 Nordeste 0 -- -- 91
2019-10-01 06:00:00 15.3 7 Nordeste 10 Nordeste 0 -- -- 90
2019-10-01 05:00:00 16.2 8 Nordeste 12 Nordeste 0 -- -- 93
2019-10-01 04:00:00 17.3 9 Nordeste 13 Nordeste 0 -- -- 94
2019-10-01 03:00:00 17.4 7 Nordeste 11 Nordeste 0 -- -- 96
2019-10-01 02:00:00 16.8 6 Nordeste 9 Nordeste 0 -- -- 95
2019-10-01 01:00:00 17.4 6 Norte 9 Norte 0 -- -- 95
2019-10-01 00:00:00 17.9 6 Norte 8 Norte 0 -- -- 95
2019-09-30 23:00:00 18.4 4 Norte 5 Norte 0 -- -- 93
2019-09-30 22:00:00 19.6 2 Norte 6 Norte 0 -- -- 91
2019-09-30 21:00:00 21.3 3 Nordeste 14 Sudoeste 0 -- -- 87
2019-09-30 20:00:00 22.7 3 Oeste 9 Sudoeste 0 -- -- 84
2019-09-30 19:00:00 23.3 0 Calma 20 Oeste 0 -- -- 82
2019-09-30 18:00:00 23.6 13 Sudoeste 28 Oeste 0 -- -- 80
2019-09-30 17:00:00 24.6 10 Sudoeste 18 Sudoeste 0 -- -- 78
2019-09-30 16:00:00 24.7 10 Sudoeste 18 Sudoeste 0 -- -- 78
2019-09-30 15:00:00 24.6 11 Sudoeste 21 Sudoeste 0 -- -- 78
2019-09-30 14:00:00 24.9 11 Sudoeste 20 Sudoeste 0 -- -- 78
2019-09-30 13:00:00 24.9 10 Sudoeste 18 Oeste 0 -- -- 76
2019-09-30 12:00:00 24.8 9 Sudoeste 18 Oeste 0 -- -- 76
2019-09-30 11:00:00 24.1 3 Sudoeste 9 Oeste 0 -- -- 76
2019-09-30 10:00:00 20.2 0 Calma 6 Nordeste 0 -- -- 95
2019-09-30 09:00:00 15.2 4 Nordeste 6 Norte 0 -- -- 97
2019-09-30 08:00:00 14.7 4 Norte 6 Norte 0 -- -- 96
2019-09-30 07:00:00 15.3 4 Norte 9 Nordeste 0 -- -- 96
2019-09-30 06:00:00 15.8 5 Norte 9 Norte 0 -- -- 97
2019-09-30 05:00:00 16.2 5 Norte 8 Norte 0 -- -- 97
2019-09-30 04:00:00 16.6 5 Norte 9 Norte 0 -- -- 96
2019-09-30 03:00:00 16.8 5 Norte 8 Norte 0 -- -- 96
2019-09-30 02:00:00 17.3 5 Norte 9 Norte 0 -- -- 96
2019-09-30 01:00:00 17.7 6 Norte 8 Norte 0 -- -- 95
2019-09-30 00:00:00 18.2 4 Norte 8 Nordeste 0 -- -- 93
2019-09-29 23:00:00 18.9 5 Nordeste 8 Norte 0 -- -- 93
2019-09-29 22:00:00 19.8 5 Norte 6 Norte 0 -- -- 90
2019-09-29 21:00:00 21.8 4 Norte 14 Oeste 0 -- -- 86
2019-09-29 20:00:00 23.7 8 Oeste 15 Oeste 0 -- -- 82
2019-09-29 19:00:00 24.8 8 Sudoeste 14 Sudoeste 0 -- -- 76
2019-09-29 18:00:00 25.8 8 Sudoeste 13 Sudoeste 0 -- -- 70
2019-09-29 17:00:00 26.4 7 Sudoeste 17 Sudoeste 0 -- -- 68
2019-09-29 16:00:00 26.2 10 Oeste 19 Sudoeste 0 -- -- 70
2019-09-29 15:00:00 26.1 11 Sudoeste 19 Oeste 0 -- -- 71
2019-09-29 14:00:00 26 10 Oeste 17 Oeste 0 -- -- 69
2019-09-29 13:00:00 26 8 Oeste 16 Oeste 0 -- -- 70
2019-09-29 12:00:00 25 5 Sudoeste 13 Sur 0 -- -- 74
2019-09-29 11:00:00 23.1 0 Calma 6 Sudoeste 0 -- -- 75
2019-09-29 10:00:00 21 2 Sur 8 Norte 0 -- -- 77
2019-09-29 09:00:00 16.2 4 Norte 12 Norte 0 -- -- 91
2019-09-29 08:00:00 15.5 7 Norte 10 Norte 0 -- -- 91
2019-09-29 07:00:00 15.6 5 Nordeste 11 Nordeste 0 -- -- 92
2019-09-29 06:00:00 16 7 Nordeste 11 Nordeste 0 -- -- 92
2019-09-29 05:00:00 16 7 Norte 10 Norte 0 -- -- 93
2019-09-29 04:00:00 16.2 4 Norte 10 Nordeste 0 -- -- 91
2019-09-29 03:00:00 16.5 6 Nordeste 10 Nordeste 0 -- -- 92
2019-09-29 02:00:00 17 7 Nordeste 9 Nordeste 0 -- -- 91
2019-09-29 01:00:00 17.5 6 Nordeste 9 Norte 0 -- -- 89
2019-09-29 00:00:00 18.1 7 Nordeste 10 Nordeste 0 -- -- 89
2019-09-28 23:00:00 17.8 8 Norte 10 Norte 0 -- -- 84
2019-09-28 22:00:00 18.6 5 Norte 8 Norte 0 -- -- 83
2019-09-28 21:00:00 20.8 4 Norte 6 Sur 0 -- -- 81
2019-09-28 20:00:00 24.2 4 Sudoeste 8 Sudoeste 0 -- -- 75
2019-09-28 19:00:00 25.8 6 Sudoeste 11 Sudoeste 0 -- -- 67
2019-09-28 18:00:00 26.7 6 Sudoeste 11 Sudoeste 0 -- -- 64
2019-09-28 17:00:00 27.1 6 Sudoeste 12 Sur 0 -- -- 60
2019-09-28 16:00:00 26.5 6 Sudoeste 16 Sur 0 -- -- 68
2019-09-28 15:00:00 26 10 Sudoeste 15 Oeste 0 -- -- 72
2019-09-28 14:00:00 25.8 8 Sudoeste 14 Sur 0 -- -- 74
2019-09-28 13:00:00 25.1 8 Sudoeste 15 Sur 0 -- -- 77
2019-09-28 12:00:00 24.5 8 Sudoeste 13 Sudoeste 0 -- -- 74
2019-09-28 11:00:00 23.8 4 Sudoeste 9 Sudoeste 0 -- -- 81
2019-09-28 10:00:00 20.4 0 Calma 5 Este 0 -- -- 96
2019-09-28 09:00:00 15.9 4 Nordeste 10 Norte 0 -- -- 97
2019-09-28 08:00:00 14.8 5 Norte 8 Norte 0 -- -- 96
2019-09-28 07:00:00 15.4 3 Nordeste 8 Norte 0 -- -- 96
2019-09-28 06:00:00 15.9 5 Nordeste 6 Nordeste 0 -- -- 96
2019-09-28 05:00:00 16.4 3 Norte 11 Norte 0 -- -- 95
2019-09-28 04:00:00 17 6 Nordeste 11 Nordeste 0 -- -- 96
2019-09-28 03:00:00 17.1 6 Norte 9 Nordeste 0 -- -- 96
2019-09-28 02:00:00 17.8 5 Nordeste 9 Nordeste 0 -- -- 96
2019-09-28 01:00:00 18.1 3 Nordeste 7 Norte 0 -- -- 95
2019-09-28 00:00:00 18.7 5 Norte 9 Norte 0 -- -- 94
2019-09-27 23:00:00 19.2 6 Norte 8 Norte 0 -- -- 93
2019-09-27 22:00:00 20.3 4 Norte 9 Oeste 0 -- -- 90
2019-09-27 21:00:00 22.1 4 Oeste 12 Noroeste 0 -- -- 90
2019-09-27 20:00:00 22.8 5 Oeste 13 Sudoeste 0 -- -- 85
2019-09-27 19:00:00 23.7 9 Sudoeste 18 Sudoeste 0 -- -- 82
2019-09-27 18:00:00 24.4 10 Sudoeste 18 Oeste 0 -- -- 78
2019-09-27 17:00:00 24.5 11 Oeste 17 Sudoeste 0 -- -- 77
2019-09-27 16:00:00 24.1 11 Sudoeste 19 Sudoeste 0 -- -- 78
2019-09-27 15:00:00 24.3 11 Sudoeste 18 Sudoeste 0 -- -- 77
2019-09-27 14:00:00 24.6 10 Sudoeste 18 Sur 0 -- -- 76
2019-09-27 13:00:00 24.5 8 Sudoeste 15 Oeste 0 -- -- 76
2019-09-27 12:00:00 23.8 7 Sudoeste 13 Sur 0 -- -- 78
2019-09-27 11:00:00 23.1 7 Sudoeste 13 Sur 0 -- -- 81
2019-09-27 10:00:00 21.2 3 Este 5 Este 0 -- -- 88
2019-09-27 09:00:00 17.4 4 Norte 9 Nordeste 0 -- -- 97
2019-09-27 08:00:00 16.8 7 Nordeste 12 Norte 0 -- -- 96
2019-09-27 07:00:00 16.6 6 Norte 9 Norte 0 -- -- 96
2019-09-27 06:00:00 17 6 Nordeste 9 Norte 0 -- -- 96
2019-09-27 05:00:00 17.3 6 Norte 8 Norte 0 -- -- 95
2019-09-27 04:00:00 17.8 4 Norte 9 Nordeste 0 -- -- 94
2019-09-27 03:00:00 18.4 6 Nordeste 10 Nordeste 0 -- -- 95
2019-09-27 02:00:00 18.8 6 Nordeste 12 Nordeste 0 -- -- 94
2019-09-27 01:00:00 18.8 6 Norte 9 Nordeste 0 -- -- 94
2019-09-27 00:00:00 19.5 6 Nordeste 8 Nordeste 0 -- -- 93
2019-09-26 23:00:00 19.9 7 Norte 9 Norte 0 -- -- 93
2019-09-26 22:00:00 20.6 4 Norte 6 Norte 0 -- -- 91
2019-09-26 21:00:00 21.9 0 Calma 5 Sur 0 -- -- 85
2019-09-26 20:00:00 23.7 4 Sur 11 Sur 0 -- -- 85
2019-09-26 19:00:00 24.9 7 Sudoeste 14 Sudoeste 0 -- -- 80
2019-09-26 18:00:00 25.8 9 Sudoeste 15 Sur 0 -- -- 76
2019-09-26 17:00:00 26.1 11 Sur 18 Sudoeste 0 -- -- 76
2019-09-26 16:00:00 26.5 8 Sudoeste 20 Sudoeste 0 -- -- 74
2019-09-26 15:00:00 26.7 11 Sudoeste 21 Sur 0 -- -- 72
2019-09-26 14:00:00 25.9 13 Sudoeste 26 Sudoeste 0 -- -- 75
2019-09-26 13:00:00 26.8 10 Sudoeste 26 Sudoeste 0 -- -- 69
2019-09-26 12:00:00 26.3 9 Sudoeste 21 Sur 0 -- -- 71
2019-09-26 11:00:00 25.9 5 Sudoeste 10 Sudoeste 0 -- -- 61
2019-09-26 10:00:00 22.1 3 Norte 8 Este 0 -- -- 65
2019-09-26 09:00:00 17.3 8 Nordeste 13 Nordeste 0 -- -- 77
2019-09-26 08:00:00 15 6 Nordeste 10 Norte 0 -- -- 85
2019-09-26 07:00:00 15.4 6 Nordeste 10 Nordeste 0 -- -- 84
2019-09-26 06:00:00 15.8 5 Norte 12 Nordeste 0 -- -- 83
2019-09-26 05:00:00 16.3 5 Nordeste 10 Nordeste 0 -- -- 83
2019-09-26 04:00:00 16.9 8 Norte 12 Nordeste 0 -- -- 81
2019-09-26 03:00:00 17.1 5 Nordeste 10 Norte 0 -- -- 87
2019-09-26 02:00:00 19 3 Sudeste 12 Nordeste 0 -- -- 92
2019-09-26 01:00:00 19.5 2 Este 14 Sur 0 -- -- 88
2019-09-26 00:00:00 19.2 4 Sur 12 Norte 0 -- -- 93
2019-09-25 23:00:00 18.8 4 Noroeste 8 Noroeste 0 -- -- 91
2019-09-25 22:00:00 20 0 Calma 6 Nordeste 0 -- -- 86
2019-09-25 21:00:00 21.7 4 Nordeste 6 Norte 0 -- -- 83
2019-09-25 20:00:00 25.2 4 Sudeste 8 Sudeste 0 -- -- 71
2019-09-25 19:00:00 27.6 6 Oeste 18 Oeste 0 -- -- 60
2019-09-25 18:00:00 27.7 7 Sudoeste 18 Oeste 0 -- -- 58
2019-09-25 17:00:00 26.8 13 Sudoeste 21 Sudoeste 0 -- -- 67
2019-09-25 16:00:00 26.6 10 Sudoeste 23 Sudoeste 0 -- -- 67
2019-09-25 15:00:00 26.3 11 Sudoeste 17 Oeste 0 -- -- 72
2019-09-25 14:00:00 26.8 9 Sudoeste 16 Sudoeste 0 -- -- 61
2019-09-25 13:00:00 27.2 6 Sudoeste 12 Sur 0 -- -- 57
2019-09-25 12:00:00 25.2 4 Sur 14 Sudoeste 0 -- -- 75
2019-09-25 11:00:00 24.2 8 Sudoeste 11 Sudoeste 0 -- -- 78
2019-09-25 10:00:00 21.8 7 Sudoeste 9 Sudoeste 0 -- -- 91
2019-09-25 09:00:00 18.3 3 Sur 8 Sudeste 0 -- -- 99
2019-09-25 08:00:00 16.7 2 Sudoeste 10 Noroeste 0 -- -- 97
2019-09-25 07:00:00 16.1 3 Noroeste 13 Noroeste 0 -- -- 97
2019-09-25 06:00:00 15.7 3 Este 12 Nordeste 0 -- -- 96
2019-09-25 05:00:00 15.9 5 Noroeste 9 Noroeste 0 -- -- 97
2019-09-25 04:00:00 15.8 4 Norte 8 Norte 0 -- -- 96
2019-09-25 03:00:00 15.9 4 Norte 10 Norte 0 -- -- 94
2019-09-25 02:00:00 16 5 Norte 12 Norte 0 -- -- 93
2019-09-25 01:00:00 16.3 4 Norte 9 Nordeste 0 -- -- 92
2019-09-25 00:00:00 16.7 5 Norte 9 Norte 0 -- -- 90
2019-09-24 23:00:00 17.2 5 Norte 8 Norte 0 -- -- 88
2019-09-24 22:00:00 18.3 4 Norte 6 Norte 0 -- -- 85
2019-09-24 21:00:00 20.1 0 Calma 4 Norte 0 -- -- 81
2019-09-24 20:00:00 23.1 2 Norte 12 Sur 0 -- -- 70
2019-09-24 19:00:00 24.2 6 Sudoeste 19 Sudoeste 0 -- -- 62
2019-09-24 18:00:00 24.1 13 Sudoeste 22 Sudoeste 0 -- -- 70
2019-09-24 17:00:00 24.8 12 Sudoeste 23 Oeste 0 -- -- 68
2019-09-24 16:00:00 25.5 12 Sudoeste 21 Oeste 0 -- -- 64
2019-09-24 15:00:00 25.7 11 Sudoeste 19 Oeste 0 -- -- 55
2019-09-24 14:00:00 25.1 12 Sudoeste 19 Oeste 0 -- -- 50
2019-09-24 13:00:00 25 10 Sudoeste 18 Sudoeste 0 -- -- 56
2019-09-24 12:00:00 24.9 9 Sudoeste 17 Sudoeste 0 -- -- 59
2019-09-24 11:00:00 24.9 5 Sudoeste 11 Sudoeste 0 -- -- 51
2019-09-24 10:00:00 22.3 4 Nordeste 12 Este 0 -- -- 64
2019-09-24 09:00:00 17.8 7 Nordeste 14 Nordeste 0 -- -- 76
2019-09-24 08:00:00 16.9 10 Nordeste 15 Nordeste 0 -- -- 77
2019-09-24 07:00:00 16.3 9 Nordeste 14 Nordeste 0 -- -- 81
2019-09-24 06:00:00 15.5 8 Nordeste 12 Nordeste 0 -- -- 87
2019-09-24 05:00:00 15.1 7 Nordeste 11 Norte 0 -- -- 88
2019-09-24 04:00:00 15.4 6 Norte 9 Norte 0 -- -- 88
2019-09-24 03:00:00 15.9 6 Nordeste 9 Nordeste 0 -- -- 87
2019-09-24 02:00:00 16.7 7 Nordeste 11 Nordeste 0 -- -- 84
2019-09-24 01:00:00 16.8 6 Nordeste 9 Norte 0 -- -- 84
2019-09-24 00:00:00 17.2 6 Norte 10 Nordeste 0 -- -- 84
2019-09-23 23:00:00 18 8 Nordeste 12 Norte 0 -- -- 84
2019-09-23 22:00:00 19.2 4 Norte 7 Norte 0 -- -- 84
2019-09-23 21:00:00 21.1 3 Norte 6 Sudoeste 0 -- -- 81
2019-09-23 20:00:00 23.7 4 Sudoeste 9 Sur 0 -- -- 63
2019-09-23 19:00:00 25 6 Sudoeste 13 Sudoeste 0 -- -- 60
2019-09-23 18:00:00 26.1 7 Sudoeste 12 Sudoeste 0 -- -- 54
2019-09-23 17:00:00 27.6 4 Oeste 12 Sudoeste 0 -- -- 37
2019-09-23 16:00:00 27.2 6 Sudoeste 15 Sudoeste 0 -- -- 45
2019-09-23 15:00:00 26.6 7 Sudoeste 16 Sur 0 -- -- 60
2019-09-23 14:00:00 25.8 8 Sudoeste 32 Sur 0 -- -- 68
2019-09-23 13:00:00 26.5 18 Sur 30 Sur 0 -- -- 59
2019-09-23 12:00:00 27 9 Noroeste 18 Noroeste 0 -- -- 51
2019-09-23 11:00:00 25.2 10 Sur 31 Nordeste 0 -- -- 58
2019-09-23 10:00:00 23.1 17 Nordeste 30 Este 0 -- -- 56
2019-09-23 09:00:00 20.1 12 Nordeste 21 Nordeste 0 -- -- 65
2019-09-23 08:00:00 18.9 10 Nordeste 24 Nordeste 0 -- -- 69
2019-09-23 07:00:00 19.1 10 Nordeste 20 Nordeste 0 -- -- 69
2019-09-23 06:00:00 20.3 11 Nordeste 18 Nordeste 0 -- -- 64
2019-09-23 05:00:00 21.6 10 Nordeste 27 Nordeste 0 -- -- 59
2019-09-23 04:00:00 22.1 7 Nordeste 27 Nordeste 0 -- -- 56
2019-09-23 03:00:00 22.5 13 Nordeste 29 Nordeste 0 -- -- 53
2019-09-23 02:00:00 23.3 17 Nordeste 30 Nordeste 0 -- -- 49
2019-09-23 01:00:00 21.7 11 Nordeste 22 Nordeste 0 -- -- 56
2019-09-23 00:00:00 21.1 8 Nordeste 19 Nordeste 0 -- -- 63
2019-09-22 23:00:00 19.7 2 Este 8 Sudeste 0 -- -- 89
2019-09-22 22:00:00 20.9 4 Norte 9 Este 0 -- -- 84
2019-09-22 21:00:00 22.9 4 Sudeste 25 Oeste 0 -- -- 78
2019-09-22 20:00:00 24.7 10 Oeste 38 Oeste 0 -- -- 69
2019-09-22 19:00:00 26.2 18 Oeste 44 Oeste 0 -- -- 64
2019-09-22 18:00:00 26.1 23 Oeste 44 Oeste 0 -- -- 66
2019-09-22 17:00:00 25.6 22 Oeste 49 Oeste 0 -- -- 71
2019-09-22 16:00:00 26.3 21 Oeste 40 Oeste 0 -- -- 69
2019-09-22 15:00:00 25.7 21 Oeste 45 Sudoeste 0 -- -- 73
2019-09-22 14:00:00 25.7 18 Oeste 36 Oeste 0 -- -- 71
2019-09-22 13:00:00 25 18 Oeste 36 Oeste 0 -- -- 77
2019-09-22 12:00:00 24.3 14 Sudoeste 34 Oeste 0 -- -- 76
2019-09-22 11:00:00 23.9 14 Oeste 28 Sudoeste 0 -- -- 77
2019-09-22 10:00:00 21.3 3 Sudoeste 9 Nordeste 0 -- -- 77
2019-09-22 09:00:00 17.5 5 Norte 9 Norte 0 -- -- 96
2019-09-22 08:00:00 16.6 8 Norte 10 Norte 0 -- -- 95
2019-09-22 07:00:00 16.9 4 Nordeste 8 Norte 0 -- -- 96
2019-09-22 06:00:00 17.5 4 Nordeste 8 Norte 0 -- -- 95
2019-09-22 05:00:00 18.7 6 Norte 10 Nordeste 0 -- -- 96
2019-09-22 04:00:00 19.5 7 Nordeste 9 Nordeste 0 -- -- 96
2019-09-22 03:00:00 19.9 5 Nordeste 8 Norte 0 -- -- 96
2019-09-22 02:00:00 20.3 3 Norte 6 Norte 0 -- -- 95
2019-09-22 01:00:00 20.9 2 Este 5 Nordeste 0 -- -- 95
2019-09-22 00:00:00 21.1 4 Norte 5 Norte 0 -- -- 94
2019-09-21 23:00:00 21.9 0 Calma 6 Nordeste 0 -- -- 91
2019-09-21 22:00:00 23 3 Sudoeste 6 Nordeste 0 -- -- 92
2019-09-21 21:00:00 23.2 3 Nordeste 18 Oeste 0 -- -- 90
2019-09-21 20:00:00 23.7 8 Oeste 20 Oeste 0 -- -- 87
2019-09-21 19:00:00 24.3 8 Oeste 19 Oeste 0 -- -- 83
2019-09-21 18:00:00 25 10 Oeste 26 Sudoeste 0 -- -- 82
2019-09-21 17:00:00 24.8 10 Oeste 22 Sudoeste 0 -- -- 82
2019-09-21 16:00:00 25.8 10 Oeste 19 Oeste 0 -- -- 80
2019-09-21 15:00:00 25.9 11 Sudoeste 17 Sudoeste 0 -- -- 80
2019-09-21 14:00:00 25.9 10 Noroeste 16 Oeste 0 -- -- 79
2019-09-21 13:00:00 25.9 7 Sudoeste 16 Sudoeste 0 -- -- 75
2019-09-21 12:00:00 26 11 Sudoeste 15 Sudoeste 0 -- -- 73
2019-09-21 11:00:00 25.5 3 Sur 9 Este 0 -- -- 74
2019-09-21 10:00:00 23.2 6 Nordeste 10 Este 0 -- -- 87
2019-09-21 09:00:00 21.6 6 Nordeste 12 Nordeste 0 -- -- 93
2019-09-21 08:00:00 21 7 Nordeste 10 Nordeste 0 -- -- 95
2019-09-21 07:00:00 20.9 4 Nordeste 7 Nordeste 0 -- -- 96
2019-09-21 06:00:00 20.7 4 Nordeste 7 Nordeste 0 -- -- 96
2019-09-21 05:00:00 20.7 3 Norte 6 Norte 0 -- -- 95
2019-09-21 04:00:00 20.9 4 Nordeste 7 Norte 0 -- -- 94
2019-09-21 03:00:00 21.5 4 Nordeste 7 Noroeste 0 -- -- 93
2019-09-21 02:00:00 22.4 5 Noroeste 6 Noroeste 0 -- -- 92
2019-09-21 01:00:00 23.4 4 Norte 10 Sudoeste 0 -- -- 88
2019-09-21 00:00:00 24.3 6 Oeste 13 Oeste 0 -- -- 85
2019-09-20 23:00:00 24.6 5 Sudoeste 12 Oeste 0 -- -- 81
2019-09-20 22:00:00 24.5 5 Oeste 9 Oeste 0 -- -- 81
2019-09-20 21:00:00 24.6 2 Sur 16 Sudoeste 0 -- -- 80
2019-09-20 20:00:00 24.7 2 Sur 11 Oeste 0 -- -- 79
2019-09-20 19:00:00 25.2 5 Oeste 14 Sudoeste 0 -- -- 77
2019-09-20 18:00:00 25.5 5 Sudoeste 14 Oeste 0 -- -- 77
2019-09-20 17:00:00 25.8 8 Sudoeste 16 Sudoeste 0 -- -- 75
2019-09-20 16:00:00 26.2 9 Sudoeste 21 Sudoeste 0 -- -- 71
2019-09-20 15:00:00 28.1 13 Sur 25 Sur 0 -- -- 65
2019-09-20 14:00:00 28.1 12 Sur 22 Sudeste 0 -- -- 64
2019-09-20 13:00:00 26.3 15 Sur 24 Sur 0 -- -- 74
2019-09-20 12:00:00 25.5 14 Sur 26 Sudeste 0 -- -- 79
2019-09-20 11:00:00 24.1 4 Sur 7 Sur 0 -- -- 84
2019-09-20 10:00:00 22.8 3 Sudeste 7 Sudeste 0 -- -- 90
2019-09-20 09:00:00 21.1 3 Norte 6 Este 0 -- -- 93
2019-09-20 08:00:00 21.9 4 Noroeste 20 Oeste 0 -- -- 88
2019-09-20 07:00:00 21.1 4 Sudoeste 12 Nordeste 0 -- -- 87
2019-09-20 06:00:00 20.2 8 Nordeste 10 Nordeste 0 -- -- 89
2019-09-20 05:00:00 21 6 Nordeste 12 Nordeste 0 -- -- 86
2019-09-20 04:00:00 21.3 6 Nordeste 9 Nordeste 0 -- -- 85
2019-09-20 03:00:00 21.4 2 Nordeste 7 Norte 0 -- -- 86
2019-09-20 02:00:00 20.7 5 Norte 9 Nordeste 0 -- -- 89
2019-09-20 01:00:00 19.7 5 Norte 8 Nordeste 0 -- -- 90
2019-09-20 00:00:00 19.9 7 Nordeste 10 Nordeste 0 -- -- 90
2019-09-19 23:00:00 20.1 5 Norte 8 Nordeste 0 -- -- 89
2019-09-19 22:00:00 20.9 3 Nordeste 8 Norte 0 -- -- 88
2019-09-19 21:00:00 22.4 3 Norte 5 Norte 0 -- -- 85
2019-09-19 20:00:00 24.7 0 Calma 8 Sur 0 -- -- 78
2019-09-19 19:00:00 26 4 Sudoeste 12 Sudoeste 0 -- -- 73
2019-09-19 18:00:00 26.8 5 Sudoeste 13 Sudoeste 0 -- -- 67
2019-09-19 17:00:00 26.8 8 Sudoeste 15 Sudoeste 0 -- -- 68
2019-09-19 16:00:00 27 8 Sudoeste 15 Sudoeste 0 -- -- 68
2019-09-19 15:00:00 26.5 8 Sudoeste 21 Sur 0 -- -- 72
2019-09-19 14:00:00 26.2 10 Sudoeste 17 Sudoeste 0 -- -- 75
2019-09-19 13:00:00 26.2 10 Sudoeste 16 Sudoeste 0 -- -- 72
2019-09-19 12:00:00 25.6 5 Sur 14 Sudoeste 0 -- -- 77
2019-09-19 11:00:00 24.1 7 Sudoeste 12 Sur 0 -- -- 83
2019-09-19 10:00:00 22.5 4 Sur 7 Sur 0 -- -- 88
2019-09-19 09:00:00 18.7 0 Calma 9 Norte 0 -- -- 97
2019-09-19 08:00:00 17.5 6 Norte 8 Norte 0 -- -- 96
2019-09-19 07:00:00 17.6 6 Norte 9 Norte 0 -- -- 97
2019-09-19 06:00:00 17.7 6 Norte 10 Nordeste 0 -- -- 96
2019-09-19 05:00:00 18.2 8 Nordeste 10 Nordeste 0 -- -- 96
2019-09-19 04:00:00 18.4 5 Norte 9 Norte 0 -- -- 96
2019-09-19 03:00:00 18.8 5 Norte 7 Norte 0 -- -- 95
2019-09-19 02:00:00 19.2 6 Norte 7 Norte 0 -- -- 95
2019-09-19 01:00:00 19.7 4 Norte 7 Norte 0 -- -- 94
2019-09-19 00:00:00 20.2 5 Norte 8 Norte 0 -- -- 94